Milledgeville, GA

06:51 AM EDT del 03 Settembre 2015 (GMT -0400)
Baldwin County | | Change Station
CLOSE
Current Station
Aeroporto
Location: Milledgeville,
Altitudine: 384 ft
Stazioni meteo nelle vicinanze

Alt. 384 ft 33.15 °N, 83.24 °W | Updated 16 minutes ago

Sereno
Sereno
73 °F
Sembra 73 °F
N
0
Vento Variabile Vento da Nord

Oggi
Massima -- | Minima -- °F
--% Possibilità di precip.
Ieri
Massima -- | Minima -- °F
Precip. -- in
7:08 AM 7:55 PM
Gobba a levante, 71% visible
Pressione 29.97 in
Visibilità 7.0 miglia
Nuvole Sereno
Punto di rugiada 72 °F
Umidità 94%
Piovosità 0.00 in
Spessore del manto nevoso Non disponibile.
Raggi UV 0 fuori da 12
Polline 8.10 fuori da 12
Qualità dell'aria Non disponibile.
Flu Activity Non disponibile.
METAR KMLJ 031035Z AUTO 00000KT 7SM CLR 23/22 A2997 RMK AO2
Pressione 29.97 in
Visibilità 7.0 miglia
Nuvole Sereno
Punto di rugiada 72 °F
Umidità 94%
Piovosità 0.00 in
Spessore del manto nevoso Non disponibile.
Raggi UV 0 fuori da 12
Polline 8.10 fuori da 12
Qualità dell'aria Non disponibile.
Flu Activity Non disponibile.
METAR KMLJ 031035Z AUTO 00000KT 7SM CLR 23/22 A2997 RMK AO2

10-Day Weather Forecast

×

Almanac

Astronomia

Sep. 03, 2015 Alba Tramonto
Ora attuale
Crepuscolo civile
Crepuscolo nautico
Crepuscolo astronomico
Luna
Estensione della luce visibile
Lunghezza del giorno
Tomorrow will be .
, % of the Moon is Illuminated

Gli estremi di oggi

State Highs State Lows

Community

WunderPhotos

Upload Photos

1,851,933 foto caricate!

WunderBlogs® & News

Nearby

Qualità dell'aria

  Qualità dell'aria Indice AQ Inquinante
Not available.

Profondità neve

Stazione Profondità Altitudine

Attività sismica

Città  Distanza Mag. Data & Ora
Minimo Magnitudo Mostrato è 2.5.

Temperature delle acque costiere

Località Temperatura

Stations

Stazioni meteo nelle vicinanze

Ubicazione della stazione Temp. Raffreddamento del vento Punto di rugiada Umidità Vento Precip. Alt. Aggiornato Tipo